Time;durP1;ratioP1;P1;durP2;ratioP2;P2;SDS_P1;SDS_P2;PMS_P1;PMS_P2;Temp;Humidity;BMP_temperature;BMP_pressure;BME280_temperature;BME280_humidity;BME280_pressure;Samples;Min_cycle;Max_cycle;Signal;HPM_P1;HPM_P2
2022/08/27 00:01:44;;;;;;;15.00;6.80;;;;;;;19.56;71.04;98508.70;105774;1278;22761;-85
2022/08/27 00:04:11;;;;;;;10.90;6.50;;;;;;;19.59;71.10;98507.58;105795;1281;23159;-81
2022/08/27 00:06:38;;;;;;;16.80;6.90;;;;;;;19.62;71.17;98508.38;105915;1277;23958;-81
2022/08/27 00:09:05;;;;;;;17.60;6.20;;;;;;;19.66;71.17;98503.84;105766;1281;22625;-88
2022/08/27 00:11:33;;;;;;;10.90;5.80;;;;;;;19.67;71.24;98505.42;105784;1277;25331;-82
2022/08/27 00:14:02;;;;;;;11.90;6.30;;;;;;;19.66;71.14;98504.08;105747;1278;22722;-83
2022/08/27 00:16:29;;;;;;;16.40;7.00;;;;;;;19.62;71.05;98504.13;105905;1277;24894;-85
2022/08/27 00:18:57;;;;;;;20.30;7.70;;;;;;;19.51;70.80;98502.77;105753;1278;22687;-87
2022/08/27 00:21:24;;;;;;;13.50;7.90;;;;;;;19.41;71.21;98502.44;105687;1281;22630;-82
2022/08/27 00:23:52;;;;;;;20.30;8.50;;;;;;;19.40;71.39;98503.90;104446;1278;1871963;-84
2022/08/27 00:26:18;;;;;;;19.90;8.90;;;;;;;19.41;71.63;98503.56;105764;1278;24218;-82
2022/08/27 00:28:46;;;;;;;17.80;8.20;;;;;;;19.41;71.51;98501.57;105747;1281;22582;-86
2022/08/27 00:31:13;;;;;;;12.90;6.50;;;;;;;19.41;71.44;98499.40;105719;1278;22825;-86
2022/08/27 00:33:40;;;;;;;12.90;6.50;;;;;;;19.39;71.51;98496.05;105680;1281;23957;-83
2022/08/27 00:36:08;;;;;;;16.40;6.80;;;;;;;19.38;71.57;98492.67;105871;1278;25354;-82
2022/08/27 00:38:37;;;;;;;12.30;6.20;;;;;;;19.39;71.54;98491.51;105570;1278;23920;-86
2022/08/27 00:41:07;;;;;;;11.40;6.30;;;;;;;19.39;71.48;98493.48;105762;1278;22585;-85
2022/08/27 00:43:52;;;;;;;13.60;7.10;;;;;;;19.39;71.60;98491.17;105728;1277;22659;-85
2022/08/27 00:46:43;;;;;;;16.90;7.10;;;;;;;19.36;71.52;98492.46;105998;1277;24357;-87
2022/08/27 00:49:17;;;;;;;13.80;6.50;;;;;;;19.34;72.03;98489.40;105775;1276;22525;-82
2022/08/27 00:51:54;;;;;;;13.70;7.30;;;;;;;19.36;71.98;98486.98;105883;1278;22537;-85
2022/08/27 00:54:23;;;;;;;13.30;6.60;;;;;;;19.31;71.60;98482.58;105631;1278;25474;-82
2022/08/27 00:56:50;;;;;;;13.00;6.60;;;;;;;19.25;71.94;98482.41;105742;1278;22541;-83
2022/08/27 00:59:19;;;;;;;20.10;6.50;;;;;;;19.24;72.07;98477.92;105721;1278;22639;-84
2022/08/27 01:04:34;;;;;;;16.80;6.50;;;;;;;19.29;72.18;98479.52;105789;1278;22605;-86
2022/08/27 01:07:02;;;;;;;15.50;7.50;;;;;;;19.32;72.27;98480.73;105781;1278;25439;-82
2022/08/27 01:09:31;;;;;;;19.30;8.40;;;;;;;19.31;72.10;98479.41;105842;1278;25315;-82
2022/08/27 01:11:58;;;;;;;17.00;8.00;;;;;;;19.28;72.19;98479.08;105801;1277;24282;-84
2022/08/27 01:14:26;;;;;;;18.60;8.50;;;;;;;19.23;72.21;98475.97;105875;1278;24175;-84
2022/08/27 01:16:56;;;;;;;19.50;8.40;;;;;;;19.18;72.04;98476.98;105776;1278;25258;-82
2022/08/27 01:19:57;;;;;;;16.20;8.30;;;;;;;19.13;72.17;98477.39;105919;1277;22583;-87
2022/08/27 01:22:24;;;;;;;26.10;9.00;;;;;;;19.06;72.26;98477.77;105897;1277;25445;-84
2022/08/27 01:25:13;;;;;;;16.80;7.60;;;;;;;19.01;72.29;98476.52;105817;1278;23389;-83
2022/08/27 01:27:42;;;;;;;18.10;7.10;;;;;;;18.95;72.56;98483.84;105887;1277;25308;-82
2022/08/27 01:30:15;;;;;;;15.40;7.00;;;;;;;18.96;72.54;98486.42;105911;1277;22522;-82
2022/08/27 01:32:44;;;;;;;19.50;8.30;;;;;;;19.00;72.71;98481.27;105917;1277;22675;-86
2022/08/27 01:35:15;;;;;;;18.50;8.60;;;;;;;19.03;72.63;98485.10;105824;1278;25318;-82
2022/08/27 01:37:45;;;;;;;15.90;7.80;;;;;;;19.05;72.93;98489.23;105931;1278;25486;-82
2022/08/27 01:40:18;;;;;;;16.90;8.40;;;;;;;19.09;72.98;98490.95;105833;1278;22550;-85
2022/08/27 01:42:48;;;;;;;16.40;8.80;;;;;;;19.10;72.79;98490.89;105704;1278;22559;-86
2022/08/27 01:45:24;;;;;;;17.80;7.90;;;;;;;18.99;72.65;98491.30;105874;1278;24259;-88
2022/08/27 01:48:17;;;;;;;18.30;7.60;;;;;;;18.95;72.81;98492.00;105928;1277;22567;-86
2022/08/27 01:50:51;;;;;;;13.90;7.40;;;;;;;18.93;73.05;98494.98;105776;1278;23909;-86
2022/08/27 01:53:23;;;;;;;17.20;7.30;;;;;;;18.97;73.25;98496.16;105716;1277;23771;-85
2022/08/27 01:55:58;;;;;;;20.50;8.00;;;;;;;18.95;72.84;98501.21;105818;1277;25360;-82
2022/08/27 01:58:29;;;;;;;18.50;8.60;;;;;;;18.86;72.61;98500.02;105390;1277;25534;-84
2022/08/27 02:01:03;;;;;;;16.10;8.50;;;;;;;18.74;72.49;98494.30;105695;1277;22584;-84
2022/08/27 02:03:31;;;;;;;19.20;8.50;;;;;;;18.62;72.77;98491.30;105732;1278;25324;-82
2022/08/27 02:05:59;;;;;;;14.40;8.40;;;;;;;18.54;72.85;98492.30;105812;1277;22725;-83
2022/08/27 02:08:26;;;;;;;16.50;7.90;;;;;;;18.49;72.86;98495.05;105776;1278;22601;-83
2022/08/27 02:10:53;;;;;;;16.70;7.90;;;;;;;18.43;72.92;98495.10;105688;1278;25313;-81
2022/08/27 02:13:23;;;;;;;17.00;7.60;;;;;;;18.42;73.39;98494.09;105694;1278;22570;-82
2022/08/27 02:15:53;;;;;;;15.20;7.80;;;;;;;18.50;73.52;98488.86;105658;1278;22553;-87
2022/08/27 02:18:20;;;;;;;14.70;7.20;;;;;;;18.58;73.61;98490.59;105672;1281;22552;-81
2022/08/27 02:20:51;;;;;;;18.90;7.70;;;;;;;18.60;73.21;98491.13;105698;1278;24290;-82
2022/08/27 02:23:18;;;;;;;16.80;7.70;;;;;;;18.61;73.42;98493.89;105758;1279;25208;-82
2022/08/27 02:25:48;;;;;;;16.30;7.70;;;;;;;18.64;73.41;98493.37;105807;1278;25360;-81
2022/08/27 02:28:15;;;;;;;20.20;8.20;;;;;;;18.64;73.56;98496.77;105693;1278;25309;-82
2022/08/27 02:30:42;;;;;;;17.40;8.40;;;;;;;18.67;73.67;98498.08;105688;1281;22566;-82
2022/08/27 02:33:09;;;;;;;18.90;8.50;;;;;;;18.69;73.62;98492.11;105717;1278;24312;-82
2022/08/27 02:35:39;;;;;;;21.00;9.20;;;;;;;18.66;73.40;98493.20;105810;1278;22589;-86
2022/08/27 02:38:06;;;;;;;14.30;7.70;;;;;;;18.63;73.63;98493.08;105720;1278;24268;-85
2022/08/27 02:40:36;;;;;;;14.80;7.60;;;;;;;18.73;73.99;98497.63;105837;1278;25559;-81
2022/08/27 02:43:04;;;;;;;13.50;7.50;;;;;;;18.81;74.15;98497.98;105665;1277;25430;-81
2022/08/27 02:45:30;;;;;;;15.70;7.80;;;;;;;18.88;73.95;98500.02;105666;1277;25250;-81
2022/08/27 02:47:57;;;;;;;15.80;8.20;;;;;;;18.95;74.18;98505.77;105685;1279;23912;-82
2022/08/27 02:50:24;;;;;;;20.80;8.30;;;;;;;19.01;74.04;98511.83;105724;1277;24273;-81
2022/08/27 02:52:51;;;;;;;18.00;7.60;;;;;;;19.06;74.15;98513.65;105699;1278;25391;-83
2022/08/27 02:55:19;;;;;;;17.30;8.20;;;;;;;19.10;74.08;98520.54;105680;1278;25235;-80
2022/08/27 02:57:47;;;;;;;17.10;7.10;;;;;;;19.11;74.15;98521.92;105604;1279;22628;-87
2022/08/27 03:00:23;;;;;;;13.90;7.00;;;;;;;19.12;74.07;98528.40;105651;1278;25250;-82
2022/08/27 03:02:50;;;;;;;12.40;6.10;;;;;;;19.16;74.22;98535.86;105753;1277;25600;-82
2022/08/27 03:05:18;;;;;;;14.00;6.00;;;;;;;19.21;74.22;98542.93;105912;1277;25565;-83
2022/08/27 03:07:45;;;;;;;16.40;6.40;;;;;;;19.24;74.22;98552.37;105678;1280;22702;-84
2022/08/27 03:10:15;;;;;;;15.40;5.70;;;;;;;19.26;73.91;98586.59;105738;1280;24259;-87
2022/08/27 03:12:43;;;;;;;18.50;6.70;;;;;;;19.21;73.87;98615.41;105745;1277;22821;-83
2022/08/27 03:15:13;;;;;;;12.20;6.30;;;;;;;19.13;73.86;98606.75;105830;1277;25200;-82
2022/08/27 03:20:29;;;;;;;16.80;6.80;;;;;;;19.00;73.79;98613.71;105943;1277;22543;-82
2022/08/27 03:22:56;;;;;;;17.50;6.60;;;;;;;18.96;73.68;98616.52;105888;1277;24373;-87
2022/08/27 03:25:23;;;;;;;15.50;6.00;;;;;;;18.96;74.04;98618.53;105691;1278;25602;-84
2022/08/27 03:27:50;;;;;;;13.70;5.70;;;;;;;18.99;74.05;98610.39;105887;1278;25310;-81
2022/08/27 03:30:20;;;;;;;14.50;5.30;;;;;;;19.04;73.85;98601.17;105568;1278;22665;-83
2022/08/27 03:32:48;;;;;;;10.00;4.20;;;;;;;19.12;73.97;98595.02;105725;1279;22538;-89
2022/08/27 03:35:17;;;;;;;15.20;4.40;;;;;;;19.22;73.91;98586.11;105722;1278;25360;-86
2022/08/27 03:37:44;;;;;;;8.50;3.90;;;;;;;19.30;73.83;98573.11;105789;1278;22538;-86
2022/08/27 03:40:12;;;;;;;8.40;3.20;;;;;;;19.38;73.86;98554.27;105709;1278;22537;-83
2022/08/27 03:42:40;;;;;;;8.70;3.20;;;;;;;19.44;73.81;98542.77;105694;1279;23186;-87
2022/08/27 03:45:08;;;;;;;6.60;2.90;;;;;;;19.48;73.79;98536.71;105696;1277;25247;-82
2022/08/27 03:47:36;;;;;;;6.90;2.30;;;;;;;19.53;73.79;98533.76;105670;1281;22550;-85
2022/08/27 03:50:05;;;;;;;7.60;2.70;;;;;;;19.58;73.72;98530.32;105861;1277;22690;-85
2022/08/27 03:52:33;;;;;;;7.80;2.80;;;;;;;19.63;73.68;98526.95;105781;1278;25525;-80
2022/08/27 03:55:02;;;;;;;9.60;3.00;;;;;;;19.67;73.65;98521.64;105739;1278;24418;-81
2022/08/27 03:57:29;;;;;;;11.80;3.10;;;;;;;19.69;73.67;98515.21;105741;1277;22544;-87
2022/08/27 03:59:56;;;;;;;10.80;3.30;;;;;;;19.70;73.66;98504.05;105776;1279;22626;-82
2022/08/27 04:02:22;;;;;;;9.70;3.10;;;;;;;19.71;73.48;98496.61;105688;1280;22560;-85
2022/08/27 04:04:49;;;;;;;9.40;3.40;;;;;;;19.71;73.59;98493.02;105745;1280;22711;-83
2022/08/27 04:07:17;;;;;;;11.40;3.80;;;;;;;19.66;73.42;98491.54;105879;1278;24415;-82
2022/08/27 04:09:49;;;;;;;9.70;3.40;;;;;;;19.65;73.72;98500.39;105890;1277;22552;-85
2022/08/27 04:12:15;;;;;;;9.00;4.20;;;;;;;19.60;73.48;98503.85;105731;1278;22617;-84
2022/08/27 04:14:42;;;;;;;10.50;4.10;;;;;;;19.57;73.60;98500.02;105634;1277;22622;-85
2022/08/27 04:17:09;;;;;;;9.50;4.00;;;;;;;19.53;73.83;98496.70;105631;1278;25485;-83
2022/08/27 04:19:36;;;;;;;11.10;3.70;;;;;;;19.51;73.91;98501.10;105680;1277;24202;-86
2022/08/27 04:22:05;;;;;;;10.30;3.70;;;;;;;19.50;73.91;98500.84;105711;1278;24243;-88
2022/08/27 04:24:34;;;;;;;12.30;4.20;;;;;;;19.50;73.98;98496.34;105742;1278;24261;-84
2022/08/27 04:27:02;;;;;;;12.00;4.90;;;;;;;19.49;73.92;98486.54;105712;1278;22567;-83
2022/08/27 04:29:30;;;;;;;12.10;4.70;;;;;;;19.52;74.10;98487.48;105912;1277;22567;-83
2022/08/27 04:31:58;;;;;;;14.00;4.40;;;;;;;19.55;74.21;98486.23;105876;1277;24303;-84
2022/08/27 04:34:25;;;;;;;9.00;4.60;;;;;;;19.58;74.05;98485.84;105706;1278;24310;-86
2022/08/27 04:36:55;;;;;;;10.50;4.50;;;;;;;19.63;74.15;98492.89;105667;1277;22543;-83
2022/08/27 04:39:23;;;;;;;11.70;3.80;;;;;;;19.63;74.20;98502.23;105907;1277;22541;-84
2022/08/27 04:41:55;;;;;;;7.70;3.10;;;;;;;19.69;74.08;98503.50;105696;1281;24000;-82
2022/08/27 04:44:28;;;;;;;10.40;3.10;;;;;;;19.79;74.25;98499.70;105745;1277;22547;-82
2022/08/27 04:46:57;;;;;;;7.00;2.70;;;;;;;19.92;74.15;98496.47;105886;1277;23970;-85
2022/08/27 04:49:25;;;;;;;7.50;2.00;;;;;;;20.07;74.10;98493.40;105931;1277;22733;-82
2022/08/27 04:51:53;;;;;;;7.10;2.70;;;;;;;20.18;73.80;98488.98;105892;1278;22556;-85
2022/08/27 04:54:21;;;;;;;7.10;2.70;;;;;;;20.30;73.83;98492.56;105752;1279;25516;-82
2022/08/27 04:56:48;;;;;;;7.50;2.50;;;;;;;20.42;73.97;98489.68;105897;1277;25551;-82
2022/08/27 04:59:15;;;;;;;7.30;2.90;;;;;;;20.54;74.05;98486.63;105877;1278;22576;-83
2022/08/27 05:01:47;;;;;;;7.90;3.00;;;;;;;20.60;73.54;98491.04;105658;1277;22554;-82
2022/08/27 05:04:17;;;;;;;6.90;2.70;;;;;;;20.65;73.76;98495.91;105672;1278;22558;-84
2022/08/27 05:06:45;;;;;;;8.70;2.80;;;;;;;20.79;74.12;98492.88;105903;1277;23065;-88
2022/08/27 05:09:14;;;;;;;10.40;2.30;;;;;;;20.97;74.18;98492.18;105706;1279;22637;-84
2022/08/27 05:11:42;;;;;;;10.30;2.80;;;;;;;21.08;73.63;98491.38;105788;1278;23029;-82
2022/08/27 05:14:11;;;;;;;8.80;2.50;;;;;;;21.16;73.68;98481.92;105741;1278;22540;-85
2022/08/27 05:16:39;;;;;;;7.30;2.20;;;;;;;21.28;73.46;98474.64;105896;1277;25370;-81
2022/08/27 05:19:09;;;;;;;7.40;2.60;;;;;;;21.35;73.27;98479.14;105644;1277;22550;-82
2022/08/27 05:21:38;;;;;;;8.10;2.30;;;;;;;21.45;73.49;98483.23;105926;1277;22544;-82
2022/08/27 05:24:07;;;;;;;5.30;2.00;;;;;;;21.59;73.61;98483.85;105793;1278;22547;-83
2022/08/27 05:26:35;;;;;;;7.60;2.30;;;;;;;21.68;73.13;98488.66;105858;1278;22557;-85
2022/08/27 05:29:04;;;;;;;8.50;2.70;;;;;;;21.78;73.39;98486.66;105645;1278;24250;-83
2022/08/27 05:31:33;;;;;;;9.70;2.60;;;;;;;21.89;73.43;98481.73;105667;1277;22504;-83
2022/08/27 05:34:01;;;;;;;15.90;3.30;;;;;;;21.98;73.58;98480.49;105582;1279;22587;-84
2022/08/27 05:36:31;;;;;;;7.80;2.60;;;;;;;22.03;73.53;98479.26;105790;1277;25484;-84
2022/08/27 05:39:00;;;;;;;12.40;3.30;;;;;;;22.08;73.59;98481.80;105825;1277;22563;-86
2022/08/27 05:41:30;;;;;;;10.50;2.60;;;;;;;22.21;73.67;98485.82;105823;1279;22585;-84
2022/08/27 05:44:00;;;;;;;7.80;2.40;;;;;;;22.38;73.75;98488.72;105732;1276;22486;-83
2022/08/27 05:46:27;;;;;;;12.80;2.80;;;;;;;22.56;73.76;98488.84;105656;1277;25461;-82
2022/08/27 05:49:00;;;;;;;13.10;2.90;;;;;;;22.78;73.96;98492.01;105755;1277;22594;-86
2022/08/27 05:51:31;;;;;;;13.70;3.70;;;;;;;23.00;73.75;98492.75;105844;1277;22693;-83
2022/08/27 05:54:17;;;;;;;16.40;3.70;;;;;;;23.18;73.49;98500.07;105712;1279;23108;-85
2022/08/27 05:56:45;;;;;;;12.50;3.60;;;;;;;23.36;73.48;98504.44;105687;1277;22560;-86
2022/08/27 06:01:58;;;;;;;12.80;2.90;;;;;;;23.49;72.81;98511.89;105743;1277;25355;-82
2022/08/27 06:04:25;;;;;;;11.70;3.00;;;;;;;23.54;72.95;98513.45;105747;1276;22540;-86
2022/08/27 06:06:52;;;;;;;9.00;2.80;;;;;;;23.57;72.80;98513.59;105888;1278;25433;-82
2022/08/27 06:09:25;;;;;;;10.80;2.90;;;;;;;23.60;72.72;98520.46;105811;1277;25242;-82
2022/08/27 06:11:54;;;;;;;9.20;2.60;;;;;;;23.69;72.65;98521.43;105781;1278;22492;-83
2022/08/27 06:14:21;;;;;;;11.80;2.80;;;;;;;23.84;72.85;98516.50;105807;1277;22763;-82
2022/08/27 06:16:49;;;;;;;9.80;2.50;;;;;;;23.97;72.73;98522.30;105931;1276;25301;-86
2022/08/27 06:19:16;;;;;;;8.90;2.30;;;;;;;23.91;72.45;98523.30;105780;1277;25236;-82
2022/08/27 06:21:43;;;;;;;10.60;2.50;;;;;;;23.89;72.28;98525.82;105725;1277;24222;-85
2022/08/27 06:24:12;;;;;;;10.50;2.30;;;;;;;23.91;72.08;98524.09;105781;1277;25232;-81
2022/08/27 06:26:41;;;;;;;10.80;2.30;;;;;;;23.87;72.04;98525.31;105769;1277;22618;-82
2022/08/27 06:29:08;;;;;;;8.20;2.30;;;;;;;23.91;72.35;98533.11;105842;1275;24237;-82
2022/08/27 06:31:36;;;;;;;7.80;2.30;;;;;;;23.88;72.43;98528.51;105776;1276;22557;-83
2022/08/27 06:34:06;;;;;;;7.80;2.60;;;;;;;23.79;71.96;98523.66;105803;1276;22554;-84
2022/08/27 06:36:36;;;;;;;7.00;2.30;;;;;;;23.73;72.12;98521.98;105847;1277;22632;-83
2022/08/27 06:39:04;;;;;;;9.80;2.40;;;;;;;23.75;72.20;98526.02;105895;1276;25237;-83
2022/08/27 06:41:35;;;;;;;8.10;2.20;;;;;;;23.87;72.43;98523.55;105573;1277;23939;-82
2022/08/27 06:44:04;;;;;;;6.40;1.90;;;;;;;24.02;72.24;98519.40;105700;1277;22541;-86
2022/08/27 06:46:31;;;;;;;9.60;2.20;;;;;;;24.18;72.01;98522.55;105752;1276;24313;-89
2022/08/27 06:49:01;;;;;;;8.20;2.00;;;;;;;24.36;71.97;98520.96;105680;1277;22563;-85
2022/08/27 06:51:31;;;;;;;6.80;2.10;;;;;;;24.60;72.15;98516.90;105718;1277;24208;-85
2022/08/27 06:54:01;;;;;;;8.00;2.10;;;;;;;24.83;71.89;98511.86;105731;1277;22553;-82
2022/08/27 06:56:28;;;;;;;6.60;1.80;;;;;;;24.97;71.60;98506.95;105958;1276;22698;-84
2022/08/27 06:58:58;;;;;;;8.50;2.00;;;;;;;25.09;71.62;98501.54;105747;1277;25350;-81
2022/08/27 07:01:29;;;;;;;8.10;2.20;;;;;;;25.17;71.48;98499.44;105765;1277;22557;-83
2022/08/27 07:03:58;;;;;;;7.20;1.80;;;;;;;25.30;71.63;98502.79;105865;1276;22620;-83
2022/08/27 07:06:26;;;;;;;9.20;1.90;;;;;;;25.36;71.28;98504.39;105878;1276;22553;-86
2022/08/27 07:08:53;;;;;;;9.90;1.80;;;;;;;25.43;71.27;98511.98;105710;1277;25240;-82
2022/08/27 07:11:20;;;;;;;8.40;2.20;;;;;;;25.61;71.57;98510.05;105680;1276;22626;-86
2022/08/27 07:13:48;;;;;;;7.90;2.10;;;;;;;25.80;70.94;98513.91;105819;1278;25360;-83
2022/08/27 07:16:18;;;;;;;8.30;2.40;;;;;;;25.81;70.41;98514.23;105707;1277;24285;-85
2022/08/27 07:18:46;;;;;;;9.30;2.50;;;;;;;25.53;69.83;98517.46;105817;1278;24272;-83
2022/08/27 07:21:13;;;;;;;10.70;2.60;;;;;;;25.30;70.04;98519.31;105830;1277;25303;-82
2022/08/27 07:23:40;;;;;;;10.90;2.80;;;;;;;25.30;70.32;98522.70;105765;1277;24199;-83
2022/08/27 07:26:09;;;;;;;8.60;3.40;;;;;;;25.35;70.53;98523.53;105849;1276;25423;-83
2022/08/27 07:28:37;;;;;;;9.60;2.80;;;;;;;25.55;70.84;98528.13;105873;1276;24290;-84
2022/08/27 07:31:07;;;;;;;8.90;3.20;;;;;;;25.78;70.91;98530.45;105843;1276;22562;-83
2022/08/27 07:33:36;;;;;;;10.80;3.40;;;;;;;25.91;70.09;98537.36;105870;1277;25321;-84
2022/08/27 07:36:05;;;;;;;10.20;3.10;;;;;;;25.91;69.63;98534.73;105913;1277;24265;-83
2022/08/27 07:38:33;;;;;;;8.70;3.40;;;;;;;25.87;69.67;98535.73;105883;1277;24252;-84
2022/08/27 07:41:05;;;;;;;9.30;3.10;;;;;;;25.89;70.41;98532.31;105923;1276;22552;-87
2022/08/27 07:46:20;;;;;;;12.20;3.50;;;;;;;26.19;70.04;98531.61;105872;1277;22598;-85
2022/08/27 07:48:48;;;;;;;8.20;1.90;;;;;;;26.17;69.87;98535.59;105824;1277;23186;-86
2022/08/27 07:51:22;;;;;;;5.20;1.50;;;;;;;26.06;69.65;98539.69;105750;1278;22555;-87
2022/08/27 07:53:49;;;;;;;4.60;1.50;;;;;;;26.00;69.57;98537.56;105811;1280;24282;-83
2022/08/27 07:56:17;;;;;;;4.30;1.50;;;;;;;25.99;69.12;98535.17;105799;1277;22557;-82
2022/08/27 07:58:45;;;;;;;4.00;1.60;;;;;;;25.97;69.33;98535.11;105769;1276;25246;-82
2022/08/27 08:01:12;;;;;;;7.80;1.50;;;;;;;25.95;69.41;98536.55;105682;1277;22570;-84
2022/08/27 08:03:40;;;;;;;5.00;1.60;;;;;;;26.06;69.50;98541.15;105696;1276;22842;-83
2022/08/27 08:06:11;;;;;;;5.70;1.60;;;;;;;26.15;69.54;98543.56;105654;1276;22634;-86
2022/08/27 08:08:39;;;;;;;5.60;1.80;;;;;;;26.30;69.15;98545.55;105762;1278;22537;-86
2022/08/27 08:11:10;;;;;;;4.20;1.70;;;;;;;26.42;69.22;98545.91;105612;1277;22579;-84
2022/08/27 08:13:37;;;;;;;5.50;1.60;;;;;;;26.40;69.14;98550.27;105744;1280;25471;-84
2022/08/27 08:16:05;;;;;;;6.60;1.90;;;;;;;26.30;68.53;98555.94;105820;1277;25362;-83
2022/08/27 08:18:34;;;;;;;6.70;2.60;;;;;;;26.20;68.85;98555.98;105834;1277;23364;-84
2022/08/27 08:21:04;;;;;;;7.80;2.90;;;;;;;26.12;68.73;98555.54;105910;1277;25343;-84
2022/08/27 08:23:32;;;;;;;11.20;3.20;;;;;;;26.08;68.89;98556.36;105801;1278;22577;-86
2022/08/27 08:26:07;;;;;;;8.10;2.70;;;;;;;26.13;69.10;98559.83;105902;1278;25316;-84
2022/08/27 08:28:38;;;;;;;7.00;2.30;;;;;;;26.18;68.81;98559.33;105783;1278;24259;-91
2022/08/27 08:31:07;;;;;;;6.20;2.20;;;;;;;26.20;68.75;98558.45;105733;1277;25240;-84
2022/08/27 08:33:35;;;;;;;8.70;2.10;;;;;;;26.20;68.50;98560.52;106029;1277;22548;-85
2022/08/27 08:36:14;;;;;;;7.00;2.30;;;;;;;26.18;68.73;98554.45;106020;1277;24202;-83
2022/08/27 08:38:43;;;;;;;6.80;2.30;;;;;;;26.13;68.85;98551.40;105965;1276;25312;-84
2022/08/27 08:41:42;;;;;;;6.90;2.30;;;;;;;26.13;68.75;98552.50;105841;1276;24269;-84
2022/08/27 08:44:54;;;;;;;6.20;2.30;;;;;;;26.23;68.49;98552.76;105960;1276;25310;-85
2022/08/27 08:47:32;;;;;;;7.10;2.10;;;;;;;26.39;68.45;98549.85;105889;1277;22673;-83
2022/08/27 08:50:08;;;;;;;4.70;1.60;;;;;;;26.52;68.32;98555.05;106107;1276;24243;-87
2022/08/27 08:52:39;;;;;;;6.10;1.90;;;;;;;26.69;68.25;98557.70;105987;1277;24502;-87
2022/08/27 08:55:24;;;;;;;6.90;1.60;;;;;;;26.80;68.35;98562.65;105988;1277;25373;-85
2022/08/27 08:58:15;;;;;;;4.30;1.50;;;;;;;26.86;68.04;98559.52;105783;1279;22560;-86
2022/08/27 09:00:53;;;;;;;5.00;1.90;;;;;;;26.89;67.68;98558.71;105918;1277;25255;-84
2022/08/27 09:03:20;;;;;;;6.10;2.20;;;;;;;26.98;67.19;98564.02;106071;1277;22666;-84
2022/08/27 09:06:00;;;;;;;5.00;1.80;;;;;;;27.11;67.60;98567.39;105882;1277;22560;-88
2022/08/27 09:08:40;;;;;;;7.50;2.20;;;;;;;27.35;67.38;98568.83;105846;1282;22538;-86
2022/08/27 09:11:18;;;;;;;4.90;1.90;;;;;;;27.63;67.70;98571.17;106026;1276;26597;-86
2022/08/27 09:13:54;;;;;;;6.50;2.20;;;;;;;27.87;66.99;98576.33;105763;1277;22538;-84
2022/08/27 09:16:21;;;;;;;6.80;2.20;;;;;;;27.96;66.84;98577.05;105912;1277;22577;-87
2022/08/27 09:18:49;;;;;;;5.50;2.10;;;;;;;28.12;66.84;98573.46;105982;1277;22543;-86
2022/08/27 09:21:40;;;;;;;6.20;2.20;;;;;;;28.26;66.57;98576.52;105970;1276;25203;-85
2022/08/27 09:24:25;;;;;;;5.30;1.80;;;;;;;28.44;66.29;98572.80;106073;1277;22589;-84
2022/08/27 09:26:56;;;;;;;5.00;1.80;;;;;;;28.46;66.26;98574.97;105880;1276;22531;-86
2022/08/27 09:29:28;;;;;;;5.20;2.00;;;;;;;28.51;66.34;98576.89;106007;1277;25312;-84
2022/08/27 09:32:07;;;;;;;4.90;1.80;;;;;;;28.64;66.30;98572.65;105767;1276;22670;-84
2022/08/27 09:34:42;;;;;;;5.80;2.10;;;;;;;28.87;66.42;98569.53;105813;1276;24899;-85
2022/08/27 09:37:51;;;;;;;5.90;2.00;;;;;;;29.00;65.92;98566.13;105830;1278;25348;-84
2022/08/27 09:40:40;;;;;;;8.10;2.20;;;;;;;28.95;65.86;98570.30;105923;1280;22707;-83
2022/08/27 09:43:42;;;;;;;7.60;2.20;;;;;;;28.87;65.87;98566.66;105918;1278;24319;-85
2022/08/27 09:47:01;;;;;;;4.80;2.10;;;;;;;28.65;64.94;98564.26;105897;1276;24518;-88
2022/08/27 09:49:34;;;;;;;7.40;2.50;;;;;;;28.25;65.58;98557.05;105972;1276;22658;-84
2022/08/27 09:52:02;;;;;;;6.50;2.40;;;;;;;28.21;65.39;98557.98;105968;1278;23382;-84
2022/08/27 09:54:38;;;;;;;6.30;2.20;;;;;;;28.12;65.55;98556.40;106140;1276;22560;-86
2022/08/27 09:57:22;;;;;;;8.00;2.10;;;;;;;28.03;65.34;98556.16;105915;1278;22776;-84
2022/08/27 09:59:56;;;;;;;7.00;2.20;;;;;;;27.91;65.33;98559.64;105887;1280;22545;-85
2022/08/27 10:03:06;;;;;;;7.70;2.00;;;;;;;27.81;65.11;98561.02;105929;1278;22566;-84
2022/08/27 10:05:53;;;;;;;6.90;2.30;;;;;;;27.71;64.92;98558.63;105821;1277;25236;-83
2022/08/27 10:08:51;;;;;;;8.60;2.90;;;;;;;27.65;65.01;98564.71;106020;1277;24306;-88
2022/08/27 10:11:34;;;;;;;5.20;2.20;;;;;;;27.56;64.58;98570.29;105815;1277;22560;-84
2022/08/27 10:14:15;;;;;;;5.10;2.20;;;;;;;27.50;64.45;98567.54;105879;1277;22795;-84
2022/08/27 10:16:57;;;;;;;7.80;2.40;;;;;;;27.40;64.20;98564.36;105842;1279;22699;-84
2022/08/27 10:20:17;;;;;;;7.00;2.60;;;;;;;27.61;64.15;98568.06;105919;1280;25413;-83
2022/08/27 10:22:56;;;;;;;11.00;3.10;;;;;;;27.64;64.82;98566.04;105617;1284;24292;-84
2022/08/27 10:26:06;;;;;;;7.50;2.60;;;;;;;27.90;64.34;98563.45;105471;1285;22545;-82
2022/08/27 10:29:22;;;;;;;;;;;;;;;;;;;;;
2022/08/27 10:32:30;;;;;;;6.60;1.80;;;;;;;28.35;64.22;98553.00;105215;1285;22551;-85
2022/08/27 10:35:18;;;;;;;8.70;1.70;;;;;;;28.57;64.10;98559.51;105321;1285;22656;-85
2022/08/27 10:38:09;;;;;;;7.50;1.80;;;;;;;28.76;63.90;98557.86;105385;1284;25469;-85
2022/08/27 10:40:57;;;;;;;6.20;1.80;;;;;;;29.02;63.66;98557.69;104869;1287;25383;-84
2022/08/27 10:43:50;;;;;;;5.10;1.40;;;;;;;29.12;63.32;98563.84;105079;1285;22684;-84
2022/08/27 10:46:24;;;;;;;3.70;1.60;;;;;;;29.13;62.76;98558.48;105313;1285;22546;-83
2022/08/27 10:49:23;;;;;;;6.10;1.80;;;;;;;29.16;62.82;98559.48;105249;1285;25331;-84
2022/08/27 10:52:04;;;;;;;5.50;1.90;;;;;;;29.22;62.42;98559.39;105054;1284;22551;-87
2022/08/27 10:54:38;;;;;;;4.30;1.60;;;;;;;29.14;62.69;98557.90;105618;1278;25418;-85
2022/08/27 10:57:56;;;;;;;4.50;1.80;;;;;;;29.34;62.69;98552.70;105896;1276;24216;-86
2022/08/27 11:00:33;;;;;;;4.60;1.50;;;;;;;29.51;62.18;98555.86;105501;1284;22576;-84
2022/08/27 11:03:33;;;;;;;4.80;1.60;;;;;;;29.69;62.61;98556.39;105524;1284;24256;-86
2022/08/27 11:06:08;;;;;;;6.90;1.70;;;;;;;29.90;62.30;98555.86;105209;1284;22547;-85
2022/08/27 11:08:48;;;;;;;6.40;1.80;;;;;;;29.75;61.40;98554.25;105105;1285;22581;-85
2022/08/27 11:11:47;;;;;;;6.10;2.10;;;;;;;29.65;62.12;98555.92;105361;1285;22817;-85
2022/08/27 11:14:55;;;;;;;7.20;2.10;;;;;;;29.74;61.81;98552.04;105199;1287;26452;-83
2022/08/27 11:17:35;;;;;;;6.20;1.90;;;;;;;29.76;61.86;98550.74;104752;1290;24440;-85
2022/08/27 11:20:24;;;;;;;6.60;1.70;;;;;;;29.80;61.96;98549.83;104795;1291;26490;-85
2022/08/27 11:23:24;;;;;;;4.90;1.90;;;;;;;29.85;61.58;98553.61;104865;1290;22570;-87
2022/08/27 11:25:59;;;;;;;5.50;1.80;;;;;;;29.96;61.72;98550.30;104500;1291;24683;-86
2022/08/27 11:28:40;;;;;;;4.60;1.80;;;;;;;29.99;61.15;98545.66;104486;1291;22696;-85
2022/08/27 11:31:14;;;;;;;5.50;1.80;;;;;;;29.78;61.14;98543.29;104712;1290;25323;-85
2022/08/27 11:33:52;;;;;;;4.40;1.80;;;;;;;29.53;61.51;98543.34;104710;1288;22722;-84
2022/08/27 11:36:28;;;;;;;7.10;3.60;;;;;;;29.45;61.92;98539.55;105267;1287;23860;-85
2022/08/27 11:39:12;;;;;;;4.20;1.80;;;;;;;29.46;61.45;98540.46;105084;1287;22728;-84
2022/08/27 11:42:08;;;;;;;8.00;2.10;;;;;;;29.45;61.57;98538.18;105160;1287;25406;-85
2022/08/27 11:44:43;;;;;;;5.30;1.70;;;;;;;29.65;61.57;98536.84;105333;1287;22592;-86
2022/08/27 11:47:27;;;;;;;7.40;2.50;;;;;;;29.69;61.18;98538.13;105002;1287;22577;-84
2022/08/27 11:50:00;;;;;;;5.80;1.90;;;;;;;29.95;61.32;98532.05;104934;1288;22636;-84
2022/08/27 11:52:39;;;;;;;6.20;2.30;;;;;;;29.99;60.88;98529.42;105210;1287;24306;-84
2022/08/27 11:55:19;;;;;;;6.10;2.10;;;;;;;29.95;61.17;98525.55;105549;1282;22796;-86
2022/08/27 11:58:23;;;;;;;6.80;2.40;;;;;;;29.83;60.52;98525.35;105783;1279;25286;-83
2022/08/27 12:00:52;;;;;;;6.90;3.50;;;;;;;29.45;60.52;98520.20;105772;1279;22535;-86
2022/08/27 12:03:36;;;;;;;6.90;2.40;;;;;;;29.21;60.70;98518.23;105836;1279;25362;-87